Aviation Digital Data Service (ADDS)

Output produced by METARs form (0927 UTC 19 April 2015)
found at http://aviationweather.gov/adds/metars/
 
KBOS 190538Z 1906/2012 36008KT P6SM FEW250 
     FM191200 01010G20KT P6SM SKC 
     FM191400 04009KT P6SM FEW250 
     FM191700 10009KT P6SM FEW250 
     FM200100 14008KT P6SM FEW250